createdAt,value
2023-03-25T00:01:15.052Z,41.63
2023-03-25T00:02:48.432Z,41.13
2023-03-25T00:04:20.182Z,41.56
2023-03-25T00:05:52.275Z,41.40
2023-03-25T00:07:24.317Z,41.23
2023-03-25T00:08:56.012Z,41.68
2023-03-25T00:10:27.491Z,41.41
2023-03-25T00:11:58.939Z,41.63
2023-03-25T00:13:31.868Z,41.80
2023-03-25T00:15:04.338Z,41.57
2023-03-25T00:16:37.021Z,41.39
2023-03-25T00:18:08.606Z,41.32
2023-03-25T00:19:41.569Z,41.54
2023-03-25T00:21:13.091Z,41.52
2023-03-25T00:22:44.985Z,41.77
2023-03-25T00:24:18.065Z,41.69
2023-03-25T00:25:50.083Z,41.84
2023-03-25T00:27:21.919Z,41.59
2023-03-25T00:28:53.446Z,41.94
2023-03-25T00:30:25.360Z,41.94
2023-03-25T00:31:56.858Z,42.19
2023-03-25T00:33:28.533Z,42.08
2023-03-25T00:35:00.060Z,42.57
2023-03-25T00:36:31.664Z,42.57
2023-03-25T00:38:03.241Z,42.10
2023-03-25T00:39:35.180Z,42.60
2023-03-25T00:41:26.000Z,42.66
2023-03-25T00:42:57.612Z,41.93
2023-03-25T00:44:29.639Z,42.50
2023-03-25T00:46:01.825Z,42.34
2023-03-25T00:47:33.374Z,42.32
2023-03-25T00:49:04.839Z,42.65
2023-03-25T00:50:36.413Z,42.63
2023-03-25T00:52:08.330Z,42.46
2023-03-25T00:53:39.916Z,42.70
2023-03-25T00:55:11.456Z,42.43
2023-03-25T00:56:43.106Z,42.73
2023-03-25T00:58:14.701Z,42.44
2023-03-25T00:59:46.154Z,42.56
2023-03-25T01:01:18.792Z,42.74
2023-03-25T01:02:54.338Z,42.79
2023-03-25T01:04:25.947Z,42.91
2023-03-25T01:05:58.146Z,43.12
2023-03-25T01:07:32.015Z,42.90
2023-03-25T01:09:04.968Z,43.04
2023-03-25T01:10:37.076Z,42.83
2023-03-25T01:12:08.678Z,42.93
2023-03-25T01:13:40.264Z,42.31
2023-03-25T01:15:13.338Z,42.36
2023-03-25T01:16:44.947Z,42.53
2023-03-25T01:18:16.604Z,42.30
2023-03-25T01:19:48.117Z,42.56
2023-03-25T01:21:20.020Z,42.75
2023-03-25T01:22:51.605Z,43.17
2023-03-25T01:24:23.124Z,42.80
2023-03-25T01:25:54.587Z,42.71
2023-03-25T01:27:26.157Z,42.74
2023-03-25T01:28:57.641Z,43.22
2023-03-25T01:30:29.164Z,43.18
2023-03-25T01:32:00.871Z,42.94
2023-03-25T01:33:32.846Z,43.16
2023-03-25T01:35:05.475Z,43.20
2023-03-25T01:36:39.993Z,43.04
2023-03-25T01:38:11.556Z,43.09
2023-03-25T01:39:43.165Z,43.03
2023-03-25T01:41:14.790Z,43.25
2023-03-25T01:42:46.750Z,43.43
2023-03-25T01:44:22.184Z,43.51
2023-03-25T01:45:53.912Z,43.72
2023-03-25T01:47:26.796Z,43.57
2023-03-25T01:48:58.434Z,43.50
2023-03-25T01:50:30.480Z,43.89
2023-03-25T01:52:05.911Z,43.38
2023-03-25T01:53:37.457Z,43.38
2023-03-25T01:55:09.553Z,43.49
2023-03-25T01:56:41.286Z,43.18
2023-03-25T01:58:13.979Z,43.51
2023-03-25T01:59:45.718Z,43.63
2023-03-25T02:01:18.468Z,43.25
2023-03-25T02:02:50.970Z,43.22
2023-03-25T02:04:42.821Z,43.69
2023-03-25T02:06:22.970Z,43.54
2023-03-25T02:07:54.788Z,43.40
2023-03-25T02:09:26.576Z,43.73
2023-03-25T02:10:58.278Z,43.53
2023-03-25T02:12:29.895Z,43.49
2023-03-25T02:14:03.570Z,43.88
2023-03-25T02:15:41.472Z,43.71
2023-03-25T02:17:12.906Z,43.77
2023-03-25T02:19:10.782Z,44.08
2023-03-25T02:20:45.420Z,44.00
2023-03-25T02:22:37.775Z,43.40
2023-03-25T02:24:30.163Z,43.98
2023-03-25T02:26:19.837Z,44.15
2023-03-25T02:28:00.290Z,43.99
2023-03-25T02:29:49.202Z,44.26
2023-03-25T02:31:39.184Z,44.28
2023-03-25T02:33:25.835Z,44.30
2023-03-25T02:35:16.529Z,44.31
2023-03-25T02:37:01.609Z,44.34
2023-03-25T02:38:33.287Z,44.00
2023-03-25T02:40:11.063Z,43.75
2023-03-25T02:41:51.583Z,44.18
2023-03-25T02:43:23.595Z,44.29
2023-03-25T02:44:55.206Z,44.45
2023-03-25T02:46:26.810Z,44.68
2023-03-25T02:48:18.712Z,44.83
2023-03-25T02:49:55.022Z,44.86
2023-03-25T02:51:30.469Z,44.46
2023-03-25T02:53:03.098Z,44.60
2023-03-25T02:54:34.737Z,44.95
2023-03-25T02:56:11.125Z,44.64
2023-03-25T02:57:44.027Z,44.76
2023-03-25T02:59:15.552Z,44.61
2023-03-25T03:00:47.373Z,44.51
2023-03-25T03:02:19.520Z,45.19
2023-03-25T03:03:51.114Z,45.49
2023-03-25T03:05:26.554Z,45.06
2023-03-25T03:06:58.287Z,44.98
2023-03-25T03:08:29.772Z,45.16
2023-03-25T03:10:19.370Z,44.87
2023-03-25T03:11:56.932Z,45.31
2023-03-25T03:13:32.131Z,44.92
2023-03-25T03:15:11.429Z,45.31
2023-03-25T03:16:42.942Z,45.61
2023-03-25T03:18:16.499Z,45.69
2023-03-25T03:19:52.373Z,45.56
2023-03-25T03:21:30.202Z,45.27
2023-03-25T03:23:11.282Z,45.16
2023-03-25T03:25:12.420Z,45.66
2023-03-25T03:26:46.486Z,45.62
2023-03-25T03:28:22.714Z,45.60
2023-03-25T03:29:55.487Z,45.82
2023-03-25T03:31:52.170Z,45.38
2023-03-25T03:33:39.180Z,45.81
2023-03-25T03:35:14.171Z,46.34
2023-03-25T03:36:47.348Z,45.71
2023-03-25T03:38:19.640Z,45.85
2023-03-25T03:39:51.152Z,46.22
2023-03-25T03:41:23.527Z,46.21
2023-03-25T03:42:59.076Z,45.91
2023-03-25T03:44:31.987Z,45.77
2023-03-25T03:46:05.421Z,45.56
2023-03-25T03:47:38.084Z,46.03
2023-03-25T03:49:10.371Z,46.05
2023-03-25T03:50:43.773Z,45.63
2023-03-25T03:52:18.827Z,46.15
2023-03-25T03:54:04.094Z,46.02
2023-03-25T03:55:42.204Z,46.17
2023-03-25T03:57:24.489Z,45.88
2023-03-25T03:58:58.611Z,46.27
2023-03-25T04:00:36.447Z,45.56
2023-03-25T04:02:27.979Z,46.25
2023-03-25T04:04:06.607Z,46.33
2023-03-25T04:05:38.536Z,46.41
2023-03-25T04:07:15.323Z,45.86
2023-03-25T04:08:53.569Z,46.45
2023-03-25T04:10:46.854Z,46.71
2023-03-25T04:12:18.677Z,46.43
2023-03-25T04:13:50.491Z,46.61
2023-03-25T04:15:22.691Z,46.20
2023-03-25T04:16:54.892Z,45.93
2023-03-25T04:18:28.680Z,45.83
2023-03-25T04:20:00.376Z,46.17
2023-03-25T04:21:32.327Z,46.18
2023-03-25T04:23:04.881Z,46.41
2023-03-25T04:24:37.929Z,46.62
2023-03-25T04:26:09.462Z,46.75
2023-03-25T04:27:40.983Z,46.64
2023-03-25T04:29:13.935Z,46.49
2023-03-25T04:30:45.545Z,46.77
2023-03-25T04:32:17.793Z,47.01
2023-03-25T04:33:50.822Z,46.92
2023-03-25T04:35:22.452Z,47.25
2023-03-25T04:36:55.676Z,47.04
2023-03-25T04:38:29.785Z,46.73
2023-03-25T04:40:01.605Z,46.98
2023-03-25T04:41:33.759Z,46.92
2023-03-25T04:43:05.483Z,47.10
2023-03-25T04:44:39.397Z,46.82
2023-03-25T04:46:12.306Z,47.26
2023-03-25T04:47:47.210Z,47.15
2023-03-25T04:49:21.607Z,47.17
2023-03-25T04:50:56.308Z,47.38
2023-03-25T04:52:27.919Z,47.09
2023-03-25T04:54:00.206Z,47.54
2023-03-25T04:55:34.825Z,47.25
2023-03-25T04:57:08.875Z,47.36
2023-03-25T04:58:40.816Z,47.77
2023-03-25T05:00:13.496Z,47.52
2023-03-25T05:01:46.136Z,47.55
2023-03-25T05:03:18.394Z,47.25
2023-03-25T05:04:50.317Z,47.07
2023-03-25T05:06:22.702Z,47.74
2023-03-25T05:07:55.528Z,47.60
2023-03-25T05:09:27.086Z,47.13
2023-03-25T05:10:58.815Z,47.70
2023-03-25T05:12:30.423Z,47.07
2023-03-25T05:14:01.913Z,47.25
2023-03-25T05:15:35.722Z,47.24
2023-03-25T05:17:07.268Z,47.42
2023-03-25T05:18:38.777Z,47.22
2023-03-25T05:20:10.782Z,47.48
2023-03-25T05:21:42.460Z,47.37
2023-03-25T05:23:18.263Z,47.03
2023-03-25T05:24:53.447Z,47.73
2023-03-25T05:26:25.275Z,47.35
2023-03-25T05:27:57.166Z,47.31
2023-03-25T05:29:34.126Z,47.45
2023-03-25T05:31:08.611Z,47.64
2023-03-25T05:32:41.398Z,47.83
2023-03-25T05:34:14.757Z,47.38
2023-03-25T05:35:46.679Z,47.70
2023-03-25T05:37:18.350Z,47.73
2023-03-25T05:38:49.883Z,47.75
2023-03-25T05:40:21.609Z,47.65
2023-03-25T05:41:55.857Z,47.34
2023-03-25T05:43:27.623Z,47.72
2023-03-25T05:45:00.132Z,47.82
2023-03-25T05:46:31.885Z,47.44
2023-03-25T05:48:04.258Z,47.55
2023-03-25T05:49:38.112Z,47.47
2023-03-25T05:51:13.857Z,47.27
2023-03-25T05:52:45.634Z,47.76
2023-03-25T05:54:17.197Z,47.75
2023-03-25T05:55:52.370Z,47.58
2023-03-25T05:57:24.324Z,47.48
2023-03-25T05:58:57.612Z,47.58
2023-03-25T06:00:30.603Z,47.76
2023-03-25T06:02:02.387Z,47.67
2023-03-25T06:03:34.857Z,47.40
2023-03-25T06:05:06.615Z,47.71
2023-03-25T06:06:38.165Z,47.61
2023-03-25T06:08:09.864Z,47.41
2023-03-25T06:09:46.277Z,47.67
2023-03-25T06:11:19.411Z,47.79
2023-03-25T06:12:53.177Z,47.55
2023-03-25T06:14:25.778Z,47.61
2023-03-25T06:15:58.341Z,47.77
2023-03-25T06:17:29.972Z,47.55
2023-03-25T06:19:03.276Z,47.63
2023-03-25T06:20:34.844Z,47.44
2023-03-25T06:22:09.498Z,47.66
2023-03-25T06:23:41.136Z,47.23
2023-03-25T06:25:14.041Z,47.16
2023-03-25T06:26:48.515Z,47.22
2023-03-25T06:28:20.230Z,47.00
2023-03-25T06:29:52.301Z,47.28
2023-03-25T06:31:26.805Z,47.07
2023-03-25T06:33:03.190Z,46.82
2023-03-25T06:34:34.925Z,46.90
2023-03-25T06:36:08.387Z,46.70
2023-03-25T06:37:40.158Z,47.03
2023-03-25T06:39:11.686Z,46.91
2023-03-25T06:40:43.349Z,46.70
2023-03-25T06:42:15.011Z,46.69
2023-03-25T06:43:47.098Z,46.68
2023-03-25T06:45:18.813Z,46.41
2023-03-25T06:46:51.018Z,46.50
2023-03-25T06:48:22.614Z,46.76
2023-03-25T06:49:55.442Z,46.82
2023-03-25T06:51:27.434Z,46.38
2023-03-25T06:52:59.087Z,46.54
2023-03-25T06:54:30.689Z,46.10
2023-03-25T06:56:02.395Z,46.08
2023-03-25T06:57:33.937Z,46.45
2023-03-25T06:59:06.150Z,46.33
2023-03-25T07:00:38.097Z,46.23
2023-03-25T07:02:12.573Z,46.20
2023-03-25T07:03:44.248Z,46.19
2023-03-25T07:05:16.042Z,46.23
2023-03-25T07:06:47.744Z,45.88
2023-03-25T07:08:19.599Z,45.99
2023-03-25T07:09:51.979Z,45.95
2023-03-25T07:11:25.249Z,45.98
2023-03-25T07:12:56.713Z,45.82
2023-03-25T07:14:28.648Z,45.88
2023-03-25T07:16:00.379Z,45.69
2023-03-25T07:17:32.132Z,45.59
2023-03-25T07:19:03.985Z,45.50
2023-03-25T07:20:35.794Z,45.44
2023-03-25T07:22:07.258Z,45.32
2023-03-25T07:23:38.821Z,45.39
2023-03-25T07:25:10.357Z,45.32
2023-03-25T07:26:41.956Z,45.28
2023-03-25T07:28:13.613Z,45.22
2023-03-25T07:29:46.102Z,44.99
2023-03-25T07:31:17.802Z,44.82
2023-03-25T07:32:49.467Z,44.78
2023-03-25T07:34:21.899Z,44.64
2023-03-25T07:35:53.981Z,44.58
2023-03-25T07:37:25.966Z,44.47
2023-03-25T07:38:57.619Z,44.34
2023-03-25T07:40:29.162Z,44.40
2023-03-25T07:42:00.786Z,44.41
2023-03-25T07:43:33.084Z,44.20
2023-03-25T07:45:07.804Z,44.43
2023-03-25T07:46:39.530Z,44.20
2023-03-25T07:48:14.856Z,44.15
2023-03-25T07:49:47.848Z,44.04
2023-03-25T07:51:20.123Z,43.86
2023-03-25T07:52:52.114Z,43.94
2023-03-25T07:54:24.606Z,43.92
2023-03-25T07:55:56.594Z,43.90
2023-03-25T07:57:28.344Z,43.81
2023-03-25T07:59:00.174Z,43.70
2023-03-25T08:00:31.823Z,43.77
2023-03-25T08:02:03.589Z,43.84
2023-03-25T08:03:35.630Z,43.82
2023-03-25T08:05:07.523Z,43.98
2023-03-25T08:06:39.292Z,43.85
2023-03-25T08:08:11.086Z,43.86
2023-03-25T08:09:42.892Z,43.76
2023-03-25T08:11:14.641Z,43.83
2023-03-25T08:12:46.303Z,43.79
2023-03-25T08:14:18.108Z,44.03
2023-03-25T08:15:50.402Z,43.99
2023-03-25T08:17:22.121Z,43.59
2023-03-25T08:18:54.321Z,43.55
2023-03-25T08:20:26.089Z,43.54
2023-03-25T08:21:57.984Z,43.74
2023-03-25T08:23:29.677Z,43.61
2023-03-25T08:25:01.745Z,43.46
2023-03-25T08:26:33.940Z,43.26
2023-03-25T08:28:06.815Z,43.16
2023-03-25T08:29:38.783Z,42.94
2023-03-25T08:31:12.163Z,42.92
2023-03-25T08:32:46.400Z,42.80
2023-03-25T08:34:18.785Z,42.63
2023-03-25T08:35:52.087Z,42.53
2023-03-25T08:37:26.093Z,42.49
2023-03-25T08:38:57.893Z,42.17
2023-03-25T08:40:31.261Z,42.22
2023-03-25T08:42:03.480Z,42.03
2023-03-25T08:43:35.760Z,41.94
2023-03-25T08:45:07.786Z,41.71
2023-03-25T08:46:39.740Z,41.86
2023-03-25T08:48:11.400Z,41.92
2023-03-25T08:49:43.464Z,41.78
2023-03-25T08:51:15.438Z,41.54
2023-03-25T08:52:47.513Z,41.50
2023-03-25T08:54:19.286Z,41.16
2023-03-25T08:55:52.094Z,41.31
2023-03-25T08:57:24.352Z,41.28
2023-03-25T08:58:56.225Z,41.20
2023-03-25T09:00:28.370Z,41.26
2023-03-25T09:02:01.453Z,41.18
2023-03-25T09:03:34.054Z,40.92
2023-03-25T09:05:06.129Z,40.58
2023-03-25T09:06:48.229Z,40.52
2023-03-25T09:08:31.086Z,40.51
2023-03-25T09:10:04.269Z,40.33
2023-03-25T09:13:08.033Z,39.80
2023-03-25T09:14:39.852Z,39.84
2023-03-25T09:16:12.135Z,39.96
2023-03-25T09:17:43.912Z,39.85
2023-03-25T09:19:15.773Z,39.78
2023-03-25T09:20:48.510Z,39.67
2023-03-25T09:22:20.256Z,39.65
2023-03-25T09:23:51.922Z,39.67
2023-03-25T09:25:23.605Z,39.78
2023-03-25T09:26:55.755Z,39.66
2023-03-25T09:28:29.329Z,39.65
2023-03-25T09:30:01.674Z,39.59
2023-03-25T09:31:33.807Z,39.23
2023-03-25T09:33:06.017Z,39.29
2023-03-25T09:34:39.328Z,39.04
2023-03-25T09:36:12.465Z,38.92
2023-03-25T09:37:44.439Z,38.64
2023-03-25T09:39:16.384Z,38.63
2023-03-25T09:40:48.090Z,38.76
2023-03-25T09:42:22.588Z,38.84
2023-03-25T09:43:54.257Z,38.73
2023-03-25T09:45:30.277Z,38.53
2023-03-25T09:47:02.193Z,38.65
2023-03-25T09:48:40.582Z,38.38
2023-03-25T09:50:13.729Z,38.38
2023-03-25T09:51:45.251Z,38.14
2023-03-25T09:53:25.685Z,37.49
2023-03-25T09:54:58.958Z,37.50
2023-03-25T09:56:32.045Z,37.18
2023-03-25T09:58:22.502Z,37.09
2023-03-25T09:59:54.234Z,37.26
2023-03-25T10:01:27.184Z,37.08
2023-03-25T10:03:08.148Z,36.56
2023-03-25T10:04:54.836Z,36.78
2023-03-25T10:06:27.417Z,36.40
2023-03-25T10:08:14.761Z,36.41
2023-03-25T10:10:05.828Z,36.12
2023-03-25T10:11:37.456Z,35.94
2023-03-25T10:13:09.468Z,35.77
2023-03-25T10:14:47.579Z,35.65
2023-03-25T10:16:19.454Z,35.84
2023-03-25T10:18:10.028Z,35.63
2023-03-25T10:19:53.970Z,35.64
2023-03-25T10:21:44.754Z,35.17
2023-03-25T10:23:24.492Z,35.31
2023-03-25T10:24:57.204Z,34.82
2023-03-25T10:26:41.549Z,34.79
2023-03-25T10:28:16.615Z,35.01
2023-03-25T10:30:11.695Z,34.53
2023-03-25T10:31:53.509Z,34.43
2023-03-25T10:33:38.097Z,34.64
2023-03-25T10:35:11.779Z,34.57
2023-03-25T10:36:45.722Z,34.34
2023-03-25T10:38:21.702Z,33.86
2023-03-25T10:39:53.887Z,33.97
2023-03-25T10:41:35.795Z,33.93
2023-03-25T10:43:17.380Z,33.44
2023-03-25T10:44:49.244Z,33.27
2023-03-25T10:46:21.476Z,33.41
2023-03-25T10:47:54.658Z,33.31
2023-03-25T10:49:27.514Z,32.80
2023-03-25T10:51:07.926Z,33.05
2023-03-25T10:52:39.569Z,33.07
2023-03-25T10:54:14.344Z,32.77
2023-03-25T10:55:46.140Z,32.74
2023-03-25T10:57:22.562Z,32.43
2023-03-25T10:58:55.259Z,32.46
2023-03-25T11:00:28.243Z,32.33
2023-03-25T11:02:01.435Z,32.11
2023-03-25T11:03:34.662Z,32.11
2023-03-25T11:05:06.692Z,32.16
2023-03-25T11:06:40.215Z,31.98
2023-03-25T11:08:22.186Z,31.75
2023-03-25T11:10:16.294Z,31.71
2023-03-25T11:11:48.165Z,31.53
2023-03-25T11:13:22.379Z,31.36
2023-03-25T11:14:55.127Z,31.50
2023-03-25T11:16:27.465Z,31.33
2023-03-25T11:17:59.751Z,31.24
2023-03-25T11:19:32.160Z,31.25
2023-03-25T11:21:05.698Z,31.04
2023-03-25T11:22:37.513Z,31.06
2023-03-25T11:24:09.783Z,30.91
2023-03-25T11:25:42.450Z,30.90
2023-03-25T11:27:20.368Z,30.95
2023-03-25T11:28:56.412Z,30.91
2023-03-25T11:30:28.217Z,30.62
2023-03-25T11:32:13.774Z,30.53
2023-03-25T11:33:46.456Z,30.76
2023-03-25T11:35:28.668Z,30.53
2023-03-25T11:37:02.252Z,30.48
2023-03-25T11:38:35.858Z,30.43
2023-03-25T11:40:11.880Z,30.16
2023-03-25T11:41:43.561Z,30.37
2023-03-25T11:43:15.797Z,30.38
2023-03-25T11:44:51.565Z,30.57
2023-03-25T11:46:23.276Z,30.19
2023-03-25T11:47:58.269Z,30.15
2023-03-25T11:49:30.234Z,30.33
2023-03-25T11:51:03.026Z,30.27
2023-03-25T11:52:45.024Z,30.21
2023-03-25T11:54:16.965Z,30.21
2023-03-25T11:55:52.684Z,30.25
2023-03-25T11:57:25.112Z,30.16
2023-03-25T11:58:57.933Z,30.04
2023-03-25T12:00:33.023Z,29.98
2023-03-25T12:02:24.974Z,29.83
2023-03-25T12:04:06.395Z,29.83
2023-03-25T12:05:38.135Z,29.78
2023-03-25T12:07:10.345Z,29.59
2023-03-25T12:08:44.810Z,29.72
2023-03-25T12:10:37.286Z,29.47
2023-03-25T12:12:12.183Z,29.34
2023-03-25T12:13:52.840Z,29.14
2023-03-25T12:15:27.830Z,29.37
2023-03-25T12:17:05.720Z,29.06
2023-03-25T12:18:54.465Z,29.23
2023-03-25T12:20:28.545Z,28.99
2023-03-25T12:22:06.095Z,28.88
2023-03-25T12:23:40.953Z,28.80
2023-03-25T12:25:16.716Z,28.66
2023-03-25T12:27:07.818Z,28.91
2023-03-25T12:28:39.826Z,28.98
2023-03-25T12:30:11.522Z,29.09
2023-03-25T12:31:52.834Z,29.12
2023-03-25T12:33:30.591Z,28.97
2023-03-25T12:35:09.167Z,28.98
2023-03-25T12:36:48.406Z,28.73
2023-03-25T12:38:23.269Z,29.01
2023-03-25T12:40:13.026Z,29.10
2023-03-25T12:41:57.422Z,29.14
2023-03-25T12:43:58.612Z,29.16
2023-03-25T12:45:30.953Z,29.03
2023-03-25T12:47:02.845Z,29.05
2023-03-25T12:48:43.885Z,28.85
2023-03-25T12:50:16.862Z,28.90
2023-03-25T12:51:48.916Z,28.66
2023-03-25T12:53:20.568Z,28.63
2023-03-25T12:55:04.557Z,28.70
2023-03-25T12:56:40.937Z,28.61
2023-03-25T12:58:15.626Z,28.52
2023-03-25T13:00:01.372Z,28.85
2023-03-25T13:01:39.315Z,28.46
2023-03-25T13:03:18.396Z,28.37
2023-03-25T13:04:57.958Z,28.45
2023-03-25T13:06:38.651Z,28.77
2023-03-25T13:08:31.233Z,28.28
2023-03-25T13:10:08.978Z,28.37
2023-03-25T13:11:41.338Z,28.23
2023-03-25T13:13:14.290Z,28.14
2023-03-25T13:14:50.255Z,28.03
2023-03-25T13:16:24.009Z,28.25
2023-03-25T13:18:00.389Z,28.29
2023-03-25T13:19:34.874Z,28.37
2023-03-25T13:21:14.081Z,28.07
2023-03-25T13:22:50.520Z,28.01
2023-03-25T13:24:36.168Z,27.97
2023-03-25T13:26:09.017Z,28.25
2023-03-25T13:27:43.610Z,28.20
2023-03-25T13:29:32.107Z,28.25
2023-03-25T13:31:05.497Z,28.31
2023-03-25T13:32:39.103Z,28.53
2023-03-25T13:34:20.384Z,28.27
2023-03-25T13:35:52.793Z,28.21
2023-03-25T13:37:25.730Z,28.40
2023-03-25T13:38:58.137Z,28.28
2023-03-25T13:41:02.713Z,28.59
2023-03-25T13:42:53.185Z,28.73
2023-03-25T13:44:27.384Z,28.76
2023-03-25T13:46:15.180Z,28.89
2023-03-25T13:48:11.739Z,29.21
2023-03-25T13:49:53.297Z,29.53
2023-03-25T13:51:25.592Z,29.76
2023-03-25T13:53:11.033Z,30.00
2023-03-25T13:54:42.649Z,30.25
2023-03-25T13:56:17.481Z,30.45
2023-03-25T13:58:09.309Z,30.57
2023-03-25T14:00:21.781Z,30.67
2023-03-25T14:01:55.080Z,30.64
2023-03-25T14:03:28.400Z,30.73
2023-03-25T14:05:18.820Z,30.89
2023-03-25T14:07:10.085Z,31.02
2023-03-25T14:08:48.900Z,31.08
2023-03-25T14:10:25.461Z,31.25
2023-03-25T14:11:57.427Z,31.37
2023-03-25T14:13:31.067Z,31.59
2023-03-25T14:15:04.784Z,31.81
2023-03-25T14:16:37.833Z,32.13
2023-03-25T14:18:14.275Z,32.28
2023-03-25T14:19:49.739Z,32.36
2023-03-25T14:21:25.181Z,32.73
2023-03-25T14:22:57.809Z,32.68
2023-03-25T14:24:30.671Z,32.87
2023-03-25T14:26:02.783Z,33.16
2023-03-25T14:27:34.730Z,33.74
2023-03-25T14:29:11.992Z,33.91
2023-03-25T14:30:43.741Z,34.12
2023-03-25T14:32:21.803Z,34.31
2023-03-25T14:34:02.649Z,34.72
2023-03-25T14:35:34.638Z,34.90
2023-03-25T14:37:09.693Z,34.92
2023-03-25T14:38:54.689Z,35.23
2023-03-25T14:40:59.091Z,35.52
2023-03-25T14:42:43.646Z,35.94
2023-03-25T14:44:18.584Z,35.89
2023-03-25T14:45:54.626Z,36.02
2023-03-25T14:47:27.086Z,36.21
2023-03-25T14:49:04.705Z,36.18
2023-03-25T14:50:36.557Z,36.50
2023-03-25T14:52:10.927Z,36.62
2023-03-25T14:53:43.091Z,36.72
2023-03-25T14:55:22.020Z,36.90
2023-03-25T14:56:56.049Z,36.72
2023-03-25T14:58:28.483Z,36.83
2023-03-25T15:00:14.138Z,37.01
2023-03-25T15:01:46.034Z,37.21
2023-03-25T15:03:18.195Z,37.32
2023-03-25T15:05:11.733Z,37.25
2023-03-25T15:06:44.170Z,37.65
2023-03-25T15:08:16.967Z,37.56
2023-03-25T15:09:52.371Z,37.67
2023-03-25T15:11:36.760Z,37.68
2023-03-25T15:13:21.842Z,37.60
2023-03-25T15:14:57.329Z,37.75
2023-03-25T15:16:33.317Z,37.61
2023-03-25T15:18:05.149Z,37.67
2023-03-25T15:19:56.216Z,37.71
2023-03-25T15:21:31.623Z,37.65
2023-03-25T15:23:35.702Z,37.74
2023-03-25T15:25:11.822Z,37.82
2023-03-25T15:26:44.213Z,37.96
2023-03-25T15:28:21.415Z,38.12
2023-03-25T15:30:17.452Z,38.10
2023-03-25T15:32:01.655Z,38.16
2023-03-25T15:33:53.852Z,38.26
2023-03-25T15:35:32.189Z,38.14
2023-03-25T15:37:28.169Z,38.27
2023-03-25T15:39:25.131Z,38.47
2023-03-25T15:41:01.687Z,38.51
2023-03-25T15:42:39.097Z,38.48
2023-03-25T15:44:24.236Z,38.40
2023-03-25T15:45:56.802Z,38.44
2023-03-25T15:47:28.816Z,38.49
2023-03-25T15:49:11.433Z,38.51
2023-03-25T15:50:43.773Z,38.48
2023-03-25T15:52:42.038Z,38.51
2023-03-25T15:54:17.535Z,38.62
2023-03-25T15:55:55.909Z,38.51
2023-03-25T15:57:32.421Z,38.53
2023-03-25T15:59:06.204Z,38.52
2023-03-25T16:00:39.369Z,38.74
2023-03-25T16:02:17.751Z,38.41
2023-03-25T16:03:52.834Z,38.51
2023-03-25T16:05:29.109Z,38.34
2023-03-25T16:07:01.042Z,38.31
2023-03-25T16:08:39.963Z,38.41
2023-03-25T16:10:22.421Z,38.52
2023-03-25T16:11:58.904Z,38.40
2023-03-25T16:13:30.681Z,38.43
2023-03-25T16:15:04.757Z,38.59
2023-03-25T16:16:37.243Z,38.86
2023-03-25T16:18:09.835Z,38.85
2023-03-25T16:19:42.620Z,38.75
2023-03-25T16:21:14.253Z,38.88
2023-03-25T16:22:47.319Z,39.12
2023-03-25T16:24:20.840Z,38.93
2023-03-25T16:25:54.640Z,39.22
2023-03-25T16:27:30.833Z,39.22
2023-03-25T16:29:09.440Z,39.38
2023-03-25T16:30:43.351Z,39.46
2023-03-25T16:32:19.253Z,39.52
2023-03-25T16:33:52.097Z,39.46
2023-03-25T16:35:24.086Z,39.29
2023-03-25T16:36:56.666Z,39.23
2023-03-25T16:38:28.850Z,39.14
2023-03-25T16:40:08.619Z,39.43
2023-03-25T16:41:44.735Z,39.43
2023-03-25T16:43:20.228Z,39.48
2023-03-25T16:44:51.803Z,39.43
2023-03-25T16:46:24.490Z,39.23
2023-03-25T16:47:56.180Z,39.35
2023-03-25T16:49:31.865Z,39.50
2023-03-25T16:51:34.189Z,39.54
2023-03-25T16:53:06.240Z,39.67
2023-03-25T16:54:43.805Z,39.45
2023-03-25T16:56:15.467Z,39.52
2023-03-25T16:57:47.346Z,39.49
2023-03-25T16:59:20.787Z,39.33
2023-03-25T17:00:53.638Z,39.48
2023-03-25T17:02:32.873Z,39.46
2023-03-25T17:04:14.800Z,39.60
2023-03-25T17:06:06.550Z,39.30
2023-03-25T17:07:38.707Z,39.22
2023-03-25T17:09:10.988Z,39.50
2023-03-25T17:10:49.690Z,39.45
2023-03-25T17:12:21.794Z,39.44
2023-03-25T17:13:54.973Z,39.79
2023-03-25T17:15:26.725Z,39.88
2023-03-25T17:16:58.581Z,39.96
2023-03-25T17:18:30.495Z,39.96
2023-03-25T17:20:06.264Z,39.88
2023-03-25T17:21:38.574Z,39.91
2023-03-25T17:23:19.201Z,39.76
2023-03-25T17:24:53.834Z,39.98
2023-03-25T17:26:26.239Z,39.76
2023-03-25T17:28:01.016Z,40.08
2023-03-25T17:29:32.767Z,39.79
2023-03-25T17:31:18.591Z,40.07
2023-03-25T17:32:51.242Z,40.06
2023-03-25T17:34:23.995Z,40.35
2023-03-25T17:35:56.510Z,40.37
2023-03-25T17:37:28.473Z,40.26
2023-03-25T17:39:02.541Z,40.33
2023-03-25T17:40:35.678Z,40.10
2023-03-25T17:42:08.394Z,40.26
2023-03-25T17:43:44.227Z,40.20
2023-03-25T17:45:16.163Z,40.22
2023-03-25T17:46:49.034Z,40.41
2023-03-25T17:48:21.530Z,40.43
2023-03-25T17:49:53.336Z,40.14
2023-03-25T17:51:25.841Z,40.67
2023-03-25T17:52:57.772Z,40.28
2023-03-25T17:54:29.721Z,40.36
2023-03-25T17:56:04.046Z,40.26
2023-03-25T17:57:37.511Z,40.24
2023-03-25T17:59:19.441Z,40.34
2023-03-25T18:00:52.449Z,40.31
2023-03-25T18:02:24.438Z,40.25
2023-03-25T18:03:56.445Z,40.42
2023-03-25T18:05:28.264Z,40.32
2023-03-25T18:06:59.918Z,40.49
2023-03-25T18:08:33.802Z,40.03
2023-03-25T18:10:14.248Z,40.10
2023-03-25T18:11:46.425Z,40.28
2023-03-25T18:13:18.746Z,39.98
2023-03-25T18:14:50.677Z,39.91
2023-03-25T18:16:22.958Z,39.88
2023-03-25T18:17:55.621Z,39.92
2023-03-25T18:19:27.940Z,39.90
2023-03-25T18:21:04.748Z,39.84
2023-03-25T18:22:36.985Z,40.13
2023-03-25T18:24:09.387Z,39.61
2023-03-25T18:25:41.294Z,39.70
2023-03-25T18:27:14.661Z,39.78
2023-03-25T18:28:46.544Z,39.91
2023-03-25T18:30:19.001Z,39.75
2023-03-25T18:31:51.076Z,39.71
2023-03-25T18:33:24.269Z,39.49
2023-03-25T18:34:56.660Z,39.46
2023-03-25T18:36:28.492Z,39.31
2023-03-25T18:38:00.985Z,39.42
2023-03-25T18:39:32.983Z,39.39
2023-03-25T18:41:05.143Z,39.54
2023-03-25T18:42:36.893Z,39.39
2023-03-25T18:44:09.034Z,39.36
2023-03-25T18:45:41.159Z,39.14
2023-03-25T18:47:12.750Z,39.22
2023-03-25T18:48:44.426Z,39.49
2023-03-25T18:50:16.976Z,39.38
2023-03-25T18:51:48.751Z,39.47
2023-03-25T18:53:20.867Z,39.54
2023-03-25T18:54:52.562Z,39.66
2023-03-25T18:56:25.524Z,39.41
2023-03-25T18:57:57.839Z,39.44
2023-03-25T18:59:29.782Z,39.40
2023-03-25T19:01:02.304Z,39.63
2023-03-25T19:02:34.530Z,39.74
2023-03-25T19:04:06.257Z,39.86
2023-03-25T19:05:37.949Z,40.01
2023-03-25T19:07:10.933Z,39.90
2023-03-25T19:08:44.320Z,40.18
2023-03-25T19:10:26.875Z,40.22
2023-03-25T19:11:58.552Z,39.90
2023-03-25T19:13:30.186Z,40.24
2023-03-25T19:15:01.780Z,39.98
2023-03-25T19:16:33.956Z,40.48
2023-03-25T19:18:05.798Z,40.34
2023-03-25T19:19:38.370Z,40.31
2023-03-25T19:21:10.435Z,40.46
2023-03-25T19:22:42.820Z,40.06
2023-03-25T19:24:14.599Z,40.07
2023-03-25T19:25:46.771Z,40.53
2023-03-25T19:27:18.829Z,40.55
2023-03-25T19:28:51.085Z,40.23
2023-03-25T19:30:23.212Z,40.77
2023-03-25T19:31:55.132Z,40.59
2023-03-25T19:33:27.201Z,40.38
2023-03-25T19:34:59.007Z,40.16
2023-03-25T19:36:35.209Z,40.20
2023-03-25T19:38:06.975Z,40.08
2023-03-25T19:39:38.648Z,40.12
2023-03-25T19:41:11.299Z,40.30
2023-03-25T19:42:43.047Z,39.97
2023-03-25T19:44:14.851Z,40.20
2023-03-25T19:45:46.568Z,40.41
2023-03-25T19:47:18.647Z,40.12
2023-03-25T19:48:50.902Z,40.10
2023-03-25T19:50:23.862Z,40.37
2023-03-25T19:51:55.645Z,40.15
2023-03-25T19:53:27.579Z,40.56
2023-03-25T19:54:59.283Z,40.28
2023-03-25T19:56:31.164Z,40.47
2023-03-25T19:58:03.350Z,40.33
2023-03-25T19:59:36.121Z,40.31
2023-03-25T20:01:08.264Z,40.10
2023-03-25T20:02:41.112Z,40.11
2023-03-25T20:04:14.475Z,40.31
2023-03-25T20:05:47.144Z,40.45
2023-03-25T20:07:20.478Z,40.40
2023-03-25T20:08:52.437Z,40.45
2023-03-25T20:10:30.723Z,40.29
2023-03-25T20:12:03.496Z,40.67
2023-03-25T20:13:36.803Z,40.88
2023-03-25T20:15:09.985Z,40.45
2023-03-25T20:16:41.845Z,40.98
2023-03-25T20:18:13.659Z,40.73
2023-03-25T20:19:45.771Z,41.06
2023-03-25T20:21:17.552Z,40.88
2023-03-25T20:22:49.387Z,40.86
2023-03-25T20:24:21.188Z,41.13
2023-03-25T20:25:53.556Z,40.81